Terminal Aerodrome Forecast
Issued by NWS Bismarck, ND

Home | Current Version | Previous Version | Graphics & Text | Print | Product List | Glossary On
Versions: 1 2 3 4 5 6 7 8 9 10 11 12 13 14 15 16 17
000
FTUS43 KBIS 281121
TAFBIS
TAF
KBIS 281121Z 2812/2912 VRB04KT P6SM FEW035 BKN100
     FM281400 25008KT P6SM FEW070 FEW300
     FM281900 28011KT P6SM SCT050 BKN070
     FM282200 32011KT P6SM VCSH BKN060
     FM290800 36013G18KT P6SM OVC035=

USA.gov is the U.S. government's official web portal to all federal, state and local government web resources and services.